ASA66 PACV-PAYA
Flight info
| Callsign | ASA66 |
|---|---|
| Flight time | 0h 36m |
| Altitude | 23000 |
| Route | FORAT MALAS V319 YAK |
| Aircraft | B737/M-SDE2E3FGHIRWXY/LB1 |
Departure
| Time | 2026-04-21 19:34 |
|---|---|
| Airport | Merle K (Mudhole) Smith Airport (PACV) |
Arrival
| Time | 2026-04-21 20:10 |
|---|---|
| Airport | Yakutat Airport (PAYA) |
| Time | Latitude | Longitude | Altitude | Speed | Heading |
|---|---|---|---|---|---|
| 2026-04-21 19:15 | 60.49417 | -145.47259 | 53 ft | 0 kts | 123° |
| 2026-04-21 19:29 | 60.49416 | -145.47259 | 53 ft | 0 kts | 123° |
| 2026-04-21 19:30 | 60.49400 | -145.47247 | 51 ft | 5 kts | 174° |
| 2026-04-21 19:30 | 60.49364 | -145.47233 | 53 ft | 6 kts | 154° |
| 2026-04-21 19:30 | 60.49320 | -145.47102 | 50 ft | 17 kts | 114° |
| 2026-04-21 19:30 | 60.49237 | -145.47023 | 51 ft | 16 kts | 200° |
| 2026-04-21 19:31 | 60.49205 | -145.47043 | 50 ft | 0 kts | 195° |
| 2026-04-21 19:31 | 60.49203 | -145.47045 | 51 ft | 4 kts | 195° |
| 2026-04-21 19:31 | 60.49121 | -145.47099 | 49 ft | 15 kts | 177° |
| 2026-04-21 19:31 | 60.49070 | -145.46943 | 55 ft | 13 kts | 118° |
| 2026-04-21 19:32 | 60.49019 | -145.46727 | 49 ft | 21 kts | 114° |
| 2026-04-21 19:32 | 60.48944 | -145.46398 | 53 ft | 30 kts | 114° |
| 2026-04-21 19:32 | 60.48884 | -145.46036 | 53 ft | 20 kts | 88° |
| 2026-04-21 19:32 | 60.48855 | -145.45873 | 53 ft | 14 kts | 178° |
| 2026-04-21 19:33 | 60.48839 | -145.45916 | 53 ft | 0 kts | 297° |
| 2026-04-21 19:33 | 60.48840 | -145.45919 | 54 ft | 7 kts | 297° |
| 2026-04-21 19:33 | 60.48977 | -145.46538 | 49 ft | 87 kts | 294° |
| 2026-04-21 19:33 | 60.49323 | -145.48104 | 70 ft | 150 kts | 294° |
| 2026-04-21 19:34 | 60.49770 | -145.50201 | 597 ft | 167 kts | 288° |
| 2026-04-21 19:34 | 60.49954 | -145.52654 | 1032 ft | 195 kts | 254° |
| 2026-04-21 19:34 | 60.49339 | -145.55192 | 1608 ft | 213 kts | 238° |
| 2026-04-21 19:34 | 60.48331 | -145.57352 | 2526 ft | 210 kts | 213° |
| 2026-04-21 19:35 | 60.46971 | -145.58395 | 3418 ft | 213 kts | 187° |
| 2026-04-21 19:35 | 60.44190 | -145.56389 | 5252 ft | 224 kts | 137° |
| 2026-04-21 19:35 | 60.43235 | -145.53837 | 6128 ft | 232 kts | 123° |
| 2026-04-21 19:36 | 60.42386 | -145.51011 | 6981 ft | 238 kts | 122° |
| 2026-04-21 19:36 | 60.41541 | -145.48135 | 7821 ft | 243 kts | 123° |
| 2026-04-21 19:36 | 60.40459 | -145.45371 | 8319 ft | 264 kts | 137° |
| 2026-04-21 19:36 | 60.39091 | -145.42601 | 8743 ft | 288 kts | 137° |
| 2026-04-21 19:37 | 60.37674 | -145.39645 | 9559 ft | 297 kts | 136° |
| 2026-04-21 19:37 | 60.36235 | -145.36579 | 10389 ft | 305 kts | 136° |
| 2026-04-21 19:37 | 60.34721 | -145.33330 | 10676 ft | 332 kts | 135° |
| 2026-04-21 19:37 | 60.33299 | -145.29415 | 10998 ft | 358 kts | 120° |
| 2026-04-21 19:38 | 60.32365 | -145.24667 | 11649 ft | 370 kts | 106° |
| 2026-04-21 19:38 | 60.31715 | -145.19585 | 12394 ft | 378 kts | 103° |
| 2026-04-21 19:38 | 60.31315 | -145.16156 | 12910 ft | 383 kts | 102° |
| 2026-04-21 19:38 | 60.30503 | -145.09042 | 13929 ft | 395 kts | 102° |
| 2026-04-21 19:39 | 60.29872 | -145.03601 | 14628 ft | 402 kts | 102° |
| 2026-04-21 19:39 | 60.29216 | -144.98077 | 15429 ft | 408 kts | 103° |
| 2026-04-21 19:39 | 60.28538 | -144.92488 | 16215 ft | 414 kts | 103° |
| 2026-04-21 19:39 | 60.27840 | -144.86807 | 16988 ft | 421 kts | 103° |
| 2026-04-21 19:40 | 60.27123 | -144.81034 | 17737 ft | 428 kts | 103° |
| 2026-04-21 19:40 | 60.26392 | -144.75181 | 18510 ft | 435 kts | 103° |
| 2026-04-21 19:40 | 60.25654 | -144.69309 | 19151 ft | 442 kts | 103° |
| 2026-04-21 19:40 | 60.24884 | -144.63196 | 19815 ft | 448 kts | 103° |
| 2026-04-21 19:41 | 60.24110 | -144.57079 | 20485 ft | 453 kts | 103° |
| 2026-04-21 19:41 | 60.23334 | -144.50968 | 21151 ft | 459 kts | 103° |
| 2026-04-21 19:41 | 60.22536 | -144.44710 | 21778 ft | 465 kts | 103° |
| 2026-04-21 19:41 | 60.21725 | -144.38377 | 22420 ft | 471 kts | 103° |
| 2026-04-21 19:42 | 60.20903 | -144.31976 | 22982 ft | 475 kts | 103° |
| 2026-04-21 19:42 | 60.20063 | -144.25454 | 23031 ft | 489 kts | 103° |
| 2026-04-21 19:42 | 60.19197 | -144.18768 | 23050 ft | 500 kts | 103° |
| 2026-04-21 19:42 | 60.18316 | -144.12007 | 23031 ft | 498 kts | 103° |
| 2026-04-21 19:43 | 60.17435 | -144.05296 | 23017 ft | 494 kts | 103° |
| 2026-04-21 19:43 | 60.16557 | -143.98648 | 23026 ft | 491 kts | 103° |
| 2026-04-21 19:43 | 60.15679 | -143.92023 | 23030 ft | 490 kts | 103° |
| 2026-04-21 19:43 | 60.14799 | -143.85396 | 23037 ft | 490 kts | 103° |
| 2026-04-21 19:44 | 60.13928 | -143.78868 | 23034 ft | 491 kts | 103° |
| 2026-04-21 19:44 | 60.13041 | -143.72236 | 23034 ft | 493 kts | 103° |
| 2026-04-21 19:44 | 60.12148 | -143.65588 | 23034 ft | 494 kts | 103° |
| 2026-04-21 19:44 | 60.11249 | -143.58930 | 23031 ft | 495 kts | 103° |
| 2026-04-21 19:45 | 60.10346 | -143.52264 | 23030 ft | 496 kts | 103° |
| 2026-04-21 19:45 | 60.09438 | -143.45597 | 23023 ft | 496 kts | 103° |
| 2026-04-21 19:45 | 60.08524 | -143.38915 | 23026 ft | 496 kts | 104° |
| 2026-04-21 19:45 | 60.07608 | -143.32244 | 23025 ft | 496 kts | 104° |
| 2026-04-21 19:46 | 60.06689 | -143.25578 | 23025 ft | 496 kts | 104° |
| 2026-04-21 19:46 | 60.05769 | -143.18936 | 23025 ft | 496 kts | 104° |
| 2026-04-21 19:46 | 60.04845 | -143.12290 | 23031 ft | 495 kts | 104° |
| 2026-04-21 19:46 | 60.03917 | -143.05647 | 23025 ft | 495 kts | 104° |
| 2026-04-21 19:47 | 60.02988 | -142.99021 | 23028 ft | 494 kts | 104° |
| 2026-04-21 19:47 | 60.02056 | -142.92401 | 23034 ft | 493 kts | 104° |
| 2026-04-21 19:47 | 60.01124 | -142.85806 | 23024 ft | 493 kts | 104° |
| 2026-04-21 19:47 | 60.00199 | -142.79290 | 23021 ft | 492 kts | 104° |
| 2026-04-21 19:48 | 59.99262 | -142.72716 | 23021 ft | 492 kts | 104° |
| 2026-04-21 19:48 | 59.98322 | -142.66147 | 23025 ft | 491 kts | 104° |
| 2026-04-21 19:48 | 59.97379 | -142.59584 | 23029 ft | 491 kts | 104° |
| 2026-04-21 19:48 | 59.96435 | -142.53035 | 23029 ft | 491 kts | 104° |
| 2026-04-21 19:49 | 59.95484 | -142.46468 | 23027 ft | 492 kts | 104° |
| 2026-04-21 19:49 | 59.94531 | -142.39916 | 23028 ft | 492 kts | 104° |
| 2026-04-21 19:49 | 59.93576 | -142.33370 | 23013 ft | 492 kts | 104° |
| 2026-04-21 19:49 | 59.92615 | -142.26814 | 23015 ft | 491 kts | 104° |
| 2026-04-21 19:50 | 59.91979 | -142.22489 | 23019 ft | 491 kts | 104° |
| 2026-04-21 19:50 | 59.90690 | -142.13758 | 23028 ft | 491 kts | 105° |
| 2026-04-21 19:50 | 59.89720 | -142.07218 | 23020 ft | 490 kts | 105° |
| 2026-04-21 19:50 | 59.88750 | -142.00702 | 23026 ft | 490 kts | 105° |
| 2026-04-21 19:51 | 59.87777 | -141.94196 | 23023 ft | 490 kts | 105° |
| 2026-04-21 19:51 | 59.86802 | -141.87694 | 23035 ft | 490 kts | 105° |
| 2026-04-21 19:51 | 59.85822 | -141.81191 | 23030 ft | 490 kts | 105° |
| 2026-04-21 19:51 | 59.84841 | -141.74698 | 23031 ft | 491 kts | 105° |
| 2026-04-21 19:52 | 59.83855 | -141.68205 | 23012 ft | 490 kts | 105° |
| 2026-04-21 19:52 | 59.82876 | -141.61779 | 23033 ft | 490 kts | 105° |
| 2026-04-21 19:52 | 59.81885 | -141.55300 | 23036 ft | 489 kts | 105° |
| 2026-04-21 19:52 | 59.80892 | -141.48831 | 23037 ft | 489 kts | 105° |
| 2026-04-21 19:53 | 59.79895 | -141.42361 | 23028 ft | 489 kts | 105° |
| 2026-04-21 19:53 | 59.78896 | -141.35904 | 23036 ft | 489 kts | 105° |
| 2026-04-21 19:53 | 59.77895 | -141.29454 | 23037 ft | 489 kts | 105° |
| 2026-04-21 19:53 | 59.76894 | -141.23033 | 22936 ft | 483 kts | 105° |
| 2026-04-21 19:54 | 59.75899 | -141.16680 | 22331 ft | 480 kts | 105° |
| 2026-04-21 19:54 | 59.75244 | -141.12501 | 21927 ft | 476 kts | 106° |
| 2026-04-21 19:54 | 59.74262 | -141.06266 | 21277 ft | 470 kts | 106° |
| 2026-04-21 19:54 | 59.73292 | -141.00125 | 20630 ft | 464 kts | 106° |
| 2026-04-21 19:55 | 59.72332 | -140.94065 | 20029 ft | 458 kts | 106° |
| 2026-04-21 19:55 | 59.71378 | -140.88067 | 19388 ft | 453 kts | 107° |
| 2026-04-21 19:55 | 59.70434 | -140.82146 | 18743 ft | 449 kts | 107° |
| 2026-04-21 19:55 | 59.69190 | -140.74375 | 17810 ft | 444 kts | 107° |
| 2026-04-21 19:56 | 59.68561 | -140.70454 | 17341 ft | 440 kts | 107° |
| 2026-04-21 19:56 | 59.67637 | -140.64712 | 16686 ft | 435 kts | 107° |
| 2026-04-21 19:56 | 59.66733 | -140.59119 | 16065 ft | 429 kts | 108° |
| 2026-04-21 19:56 | 59.65829 | -140.53531 | 15439 ft | 423 kts | 108° |
| 2026-04-21 19:57 | 59.64938 | -140.48020 | 14822 ft | 418 kts | 108° |
| 2026-04-21 19:57 | 59.64058 | -140.42577 | 14200 ft | 413 kts | 108° |
| 2026-04-21 19:57 | 59.63186 | -140.37193 | 13524 ft | 408 kts | 108° |
| 2026-04-21 19:57 | 59.62333 | -140.31946 | 12845 ft | 393 kts | 108° |
| 2026-04-21 19:58 | 59.61509 | -140.26900 | 12229 ft | 379 kts | 108° |
| 2026-04-21 19:58 | 59.60689 | -140.21986 | 11664 ft | 374 kts | 111° |
| 2026-04-21 19:58 | 59.59549 | -140.17403 | 11059 ft | 369 kts | 123° |
| 2026-04-21 19:58 | 59.58015 | -140.13411 | 10602 ft | 356 kts | 135° |
| 2026-04-21 19:59 | 59.56369 | -140.09957 | 10346 ft | 334 kts | 136° |
| 2026-04-21 19:59 | 59.54808 | -140.06758 | 10180 ft | 314 kts | 136° |
| 2026-04-21 19:59 | 59.53331 | -140.03745 | 10045 ft | 297 kts | 137° |
| 2026-04-21 19:59 | 59.51925 | -140.00873 | 9876 ft | 288 kts | 136° |
| 2026-04-21 20:00 | 59.50556 | -139.98074 | 9563 ft | 284 kts | 136° |
| 2026-04-21 20:00 | 59.49190 | -139.95273 | 9229 ft | 282 kts | 136° |
| 2026-04-21 20:00 | 59.47840 | -139.92501 | 8914 ft | 279 kts | 136° |
| 2026-04-21 20:00 | 59.46502 | -139.89755 | 8591 ft | 276 kts | 136° |
| 2026-04-21 20:01 | 59.45181 | -139.87041 | 8287 ft | 273 kts | 136° |
| 2026-04-21 20:01 | 59.43872 | -139.84355 | 7963 ft | 271 kts | 136° |
| 2026-04-21 20:01 | 59.42593 | -139.81732 | 7672 ft | 268 kts | 136° |
| 2026-04-21 20:01 | 59.41307 | -139.79095 | 7344 ft | 267 kts | 136° |
| 2026-04-21 20:02 | 59.40024 | -139.76468 | 7015 ft | 265 kts | 136° |
| 2026-04-21 20:02 | 59.38752 | -139.73866 | 6702 ft | 264 kts | 136° |
| 2026-04-21 20:02 | 59.37482 | -139.71272 | 6368 ft | 262 kts | 136° |
| 2026-04-21 20:02 | 59.36220 | -139.68694 | 6042 ft | 261 kts | 136° |
| 2026-04-21 20:03 | 59.34980 | -139.66163 | 5712 ft | 260 kts | 136° |
| 2026-04-21 20:03 | 59.33729 | -139.63616 | 5384 ft | 258 kts | 136° |
| 2026-04-21 20:03 | 59.32483 | -139.61083 | 5064 ft | 257 kts | 136° |
| 2026-04-21 20:03 | 59.31246 | -139.58573 | 4758 ft | 255 kts | 136° |
| 2026-04-21 20:04 | 59.30258 | -139.55764 | 4435 ft | 255 kts | 109° |
| 2026-04-21 20:04 | 59.30112 | -139.52356 | 4136 ft | 253 kts | 78° |
| 2026-04-21 20:04 | 59.30827 | -139.49271 | 3850 ft | 248 kts | 50° |
| 2026-04-21 20:04 | 59.31956 | -139.46836 | 3743 ft | 237 kts | 43° |
| 2026-04-21 20:05 | 59.33118 | -139.44593 | 3615 ft | 230 kts | 42° |
| 2026-04-21 20:05 | 59.34239 | -139.42430 | 3503 ft | 221 kts | 42° |
| 2026-04-21 20:05 | 59.35383 | -139.40543 | 3388 ft | 209 kts | 21° |
| 2026-04-21 20:05 | 59.36749 | -139.40106 | 3374 ft | 199 kts | 348° |
| 2026-04-21 20:06 | 59.38038 | -139.40995 | 3120 ft | 200 kts | 322° |
| 2026-04-21 20:06 | 59.39055 | -139.42770 | 2913 ft | 193 kts | 313° |
| 2026-04-21 20:06 | 59.39995 | -139.44604 | 2656 ft | 188 kts | 312° |
| 2026-04-21 20:06 | 59.40911 | -139.46397 | 2406 ft | 184 kts | 312° |
| 2026-04-21 20:07 | 59.41805 | -139.48146 | 2153 ft | 179 kts | 313° |
| 2026-04-21 20:07 | 59.42674 | -139.49847 | 1926 ft | 174 kts | 312° |
| 2026-04-21 20:07 | 59.43506 | -139.51472 | 1735 ft | 165 kts | 312° |
| 2026-04-21 20:07 | 59.44306 | -139.53037 | 1641 ft | 162 kts | 312° |
| 2026-04-21 20:08 | 59.45122 | -139.54638 | 1347 ft | 166 kts | 312° |
| 2026-04-21 20:08 | 59.45892 | -139.56149 | 1128 ft | 151 kts | 312° |
| 2026-04-21 20:08 | 59.46586 | -139.57519 | 924 ft | 134 kts | 310° |
| 2026-04-21 20:08 | 59.47230 | -139.58792 | 781 ft | 132 kts | 310° |
| 2026-04-21 20:09 | 59.47880 | -139.60070 | 591 ft | 131 kts | 310° |
| 2026-04-21 20:09 | 59.48523 | -139.61336 | 422 ft | 131 kts | 309° |
| 2026-04-21 20:09 | 59.49161 | -139.62619 | 243 ft | 132 kts | 309° |
| 2026-04-21 20:09 | 59.49810 | -139.63886 | 39 ft | 130 kts | 310° |
| 2026-04-21 20:10 | 59.50371 | -139.65000 | 31 ft | 85 kts | 315° |
| 2026-04-21 20:10 | 59.50695 | -139.65632 | 33 ft | 49 kts | 315° |
| 2026-04-21 20:10 | 59.50875 | -139.65982 | 29 ft | 31 kts | 315° |
| 2026-04-21 20:10 | 59.50980 | -139.66211 | 30 ft | 13 kts | 286° |
| 2026-04-21 20:11 | 59.50947 | -139.66332 | 33 ft | 7 kts | 226° |
| 2026-04-21 20:11 | 59.50912 | -139.66405 | 34 ft | 7 kts | 225° |
| 2026-04-21 20:11 | 59.50876 | -139.66482 | 34 ft | 9 kts | 230° |
| 2026-04-21 20:11 | 59.50824 | -139.66575 | 34 ft | 12 kts | 219° |
| 2026-04-21 20:12 | 59.50774 | -139.66657 | 34 ft | 7 kts | 222° |
| 2026-04-21 20:12 | 59.50757 | -139.66718 | 34 ft | 1 kts | 281° |
| 2026-04-21 20:12 | 59.50771 | -139.66735 | 34 ft | 3 kts | 338° |